sensor_id;sensor_type;location;lat;lon;timestamp;pressure;altitude;pressure_sealevel;temperature;humidity
6680;BME280;3376;42.664;23.346;2022-09-13T00:01:02;94388.59;;;15.41;98.02
6680;BME280;3376;42.664;23.346;2022-09-13T00:03:29;94386.97;;;15.40;98.96
6680;BME280;3376;42.664;23.346;2022-09-13T00:05:56;94387.38;;;15.37;99.13
6680;BME280;3376;42.664;23.346;2022-09-13T00:08:25;94389.19;;;15.43;98.56
6680;BME280;3376;42.664;23.346;2022-09-13T00:10:52;94384.16;;;15.41;98.62
6680;BME280;3376;42.664;23.346;2022-09-13T00:13:19;94355.28;;;15.29;99.00
6680;BME280;3376;42.664;23.346;2022-09-13T00:15:47;94339.25;;;15.19;99.93
6680;BME280;3376;42.664;23.346;2022-09-13T00:18:15;94362.69;;;15.39;99.26
6680;BME280;3376;42.664;23.346;2022-09-13T00:20:42;94368.31;;;15.43;99.65
6680;BME280;3376;42.664;23.346;2022-09-13T00:23:09;94356.91;;;15.30;99.68
6680;BME280;3376;42.664;23.346;2022-09-13T00:25:38;94360.06;;;15.39;100.00
6680;BME280;3376;42.664;23.346;2022-09-13T00:28:05;94346.84;;;15.41;99.36
6680;BME280;3376;42.664;23.346;2022-09-13T00:30:31;94362.66;;;15.46;99.65
6680;BME280;3376;42.664;23.346;2022-09-13T00:32:59;94329.59;;;15.26;100.00
6680;BME280;3376;42.664;23.346;2022-09-13T00:35:29;94339.63;;;15.29;99.94
6680;BME280;3376;42.664;23.346;2022-09-13T00:37:58;94347.44;;;15.43;100.00
6680;BME280;3376;42.664;23.346;2022-09-13T00:40:25;94354.84;;;15.46;100.00
6680;BME280;3376;42.664;23.346;2022-09-13T00:42:53;94364.44;;;15.52;99.66
6680;BME280;3376;42.664;23.346;2022-09-13T00:45:20;94350.78;;;15.50;99.48
6680;BME280;3376;42.664;23.346;2022-09-13T00:47:51;94255.13;;;14.93;99.99
6680;BME280;3376;42.664;23.346;2022-09-13T00:50:24;94337.22;;;15.66;99.39
6680;BME280;3376;42.664;23.346;2022-09-13T00:52:56;94349.66;;;15.70;98.87
6680;BME280;3376;42.664;23.346;2022-09-13T00:55:27;94350.63;;;15.76;98.72
6680;BME280;3376;42.664;23.346;2022-09-13T00:58:01;94352.25;;;15.77;98.71
6680;BME280;3376;42.664;23.346;2022-09-13T01:00:30;94338.09;;;15.84;97.70
6680;BME280;3376;42.664;23.346;2022-09-13T01:02:59;94311.28;;;15.71;97.58
6680;BME280;3376;42.664;23.346;2022-09-13T01:05:30;94352.63;;;16.05;97.29
6680;BME280;3376;42.664;23.346;2022-09-13T01:07:58;94359.31;;;16.01;96.14
6680;BME280;3376;42.664;23.346;2022-09-13T01:10:26;94355.31;;;15.98;97.02
6680;BME280;3376;42.664;23.346;2022-09-13T01:13:00;94352.47;;;16.00;96.71
6680;BME280;3376;42.664;23.346;2022-09-13T01:15:35;94339.84;;;15.97;96.35
6680;BME280;3376;42.664;23.346;2022-09-13T01:18:02;94347.56;;;16.10;96.03
6680;BME280;3376;42.664;23.346;2022-09-13T01:20:43;94356.44;;;16.09;95.38
6680;BME280;3376;42.664;23.346;2022-09-13T01:27:00;94353.59;;;16.10;95.56
6680;BME280;3376;42.664;23.346;2022-09-13T01:30:00;94339.19;;;16.01;95.58
6680;BME280;3376;42.664;23.346;2022-09-13T01:32:33;94343.81;;;16.06;96.34
6680;BME280;3376;42.664;23.346;2022-09-13T01:35:13;94338.72;;;16.11;95.23
6680;BME280;3376;42.664;23.346;2022-09-13T01:37:51;94307.94;;;15.88;95.34
6680;BME280;3376;42.664;23.346;2022-09-13T01:43:24;94305.50;;;15.93;95.41
6680;BME280;3376;42.664;23.346;2022-09-13T01:46:01;94334.78;;;16.02;96.26
6680;BME280;3376;42.664;23.346;2022-09-13T01:48:36;94317.16;;;15.91;95.25
6680;BME280;3376;42.664;23.346;2022-09-13T01:51:14;94328.13;;;16.06;94.74
6680;BME280;3376;42.664;23.346;2022-09-13T01:53:49;94327.38;;;15.99;95.82
6680;BME280;3376;42.664;23.346;2022-09-13T01:56:23;94319.38;;;15.94;96.06
6680;BME280;3376;42.664;23.346;2022-09-13T01:58:55;94325.25;;;15.83;96.60
6680;BME280;3376;42.664;23.346;2022-09-13T02:01:27;94329.69;;;15.82;97.26
6680;BME280;3376;42.664;23.346;2022-09-13T02:03:59;94331.25;;;15.90;97.03
6680;BME280;3376;42.664;23.346;2022-09-13T02:06:30;94342.13;;;15.87;96.74
6680;BME280;3376;42.664;23.346;2022-09-13T02:09:01;94334.28;;;15.87;97.15
6680;BME280;3376;42.664;23.346;2022-09-13T02:11:29;94328.31;;;15.80;97.17
6680;BME280;3376;42.664;23.346;2022-09-13T02:14:05;94334.69;;;15.84;97.20
6680;BME280;3376;42.664;23.346;2022-09-13T02:16:38;94329.31;;;15.79;97.45
6680;BME280;3376;42.664;23.346;2022-09-13T02:19:10;94327.88;;;15.83;97.59
6680;BME280;3376;42.664;23.346;2022-09-13T02:21:43;94307.69;;;15.65;98.10
6680;BME280;3376;42.664;23.346;2022-09-13T02:24:14;94330.97;;;15.73;98.33
6680;BME280;3376;42.664;23.346;2022-09-13T02:26:44;94327.13;;;15.76;97.95
6680;BME280;3376;42.664;23.346;2022-09-13T02:29:16;94312.09;;;15.71;98.19
6680;BME280;3376;42.664;23.346;2022-09-13T02:31:48;94322.06;;;15.81;97.46
6680;BME280;3376;42.664;23.346;2022-09-13T02:34:19;94311.13;;;15.66;96.98
6680;BME280;3376;42.664;23.346;2022-09-13T02:36:48;94147.38;;;14.55;97.14
6680;BME280;3376;42.664;23.346;2022-09-13T02:39:19;94319.63;;;15.55;98.22
6680;BME280;3376;42.664;23.346;2022-09-13T02:41:51;94321.06;;;15.51;99.23
6680;BME280;3376;42.664;23.346;2022-09-13T02:44:26;94320.72;;;15.41;99.22
6680;BME280;3376;42.664;23.346;2022-09-13T02:47:07;94331.94;;;15.41;99.87
6680;BME280;3376;42.664;23.346;2022-09-13T02:49:44;94328.34;;;15.36;100.00
6680;BME280;3376;42.664;23.346;2022-09-13T02:52:21;94336.56;;;15.46;99.75
6680;BME280;3376;42.664;23.346;2022-09-13T02:54:52;94330.38;;;15.40;99.80
6680;BME280;3376;42.664;23.346;2022-09-13T02:57:27;94325.16;;;15.33;100.00
6680;BME280;3376;42.664;23.346;2022-09-13T02:59:56;94337.19;;;15.34;100.00
6680;BME280;3376;42.664;23.346;2022-09-13T03:02:26;94323.56;;;15.26;99.98
6680;BME280;3376;42.664;23.346;2022-09-13T03:04:57;94333.03;;;15.27;100.00
6680;BME280;3376;42.664;23.346;2022-09-13T03:07:25;94333.41;;;15.30;100.00
6680;BME280;3376;42.664;23.346;2022-09-13T03:09:54;94336.41;;;15.27;100.00
6680;BME280;3376;42.664;23.346;2022-09-13T03:13:10;94328.78;;;15.26;100.00
6680;BME280;3376;42.664;23.346;2022-09-13T03:15:51;94332.03;;;15.21;100.00
6680;BME280;3376;42.664;23.346;2022-09-13T03:18:40;94335.63;;;15.20;100.00
6680;BME280;3376;42.664;23.346;2022-09-13T03:21:18;94333.44;;;15.17;100.00
6680;BME280;3376;42.664;23.346;2022-09-13T03:23:54;94337.44;;;15.26;100.00
6680;BME280;3376;42.664;23.346;2022-09-13T03:26:34;94316.81;;;15.18;100.00
6680;BME280;3376;42.664;23.346;2022-09-13T03:29:17;94337.59;;;15.31;100.00
6680;BME280;3376;42.664;23.346;2022-09-13T03:31:54;94332.22;;;15.26;100.00
6680;BME280;3376;42.664;23.346;2022-09-13T03:34:32;94328.56;;;15.27;100.00
6680;BME280;3376;42.664;23.346;2022-09-13T03:37:04;94338.38;;;15.39;100.00
6680;BME280;3376;42.664;23.346;2022-09-13T03:39:38;94332.34;;;15.45;100.00
6680;BME280;3376;42.664;23.346;2022-09-13T03:42:15;94312.13;;;15.27;99.82
6680;BME280;3376;42.664;23.346;2022-09-13T03:44:46;94337.31;;;15.53;99.01
6680;BME280;3376;42.664;23.346;2022-09-13T03:47:16;94315.13;;;15.30;98.78
6680;BME280;3376;42.664;23.346;2022-09-13T03:49:45;94340.00;;;15.40;98.88
6680;BME280;3376;42.664;23.346;2022-09-13T03:52:12;94336.59;;;15.32;99.78
6680;BME280;3376;42.664;23.346;2022-09-13T03:54:39;94343.63;;;15.32;100.00
6680;BME280;3376;42.664;23.346;2022-09-13T03:57:08;94341.44;;;15.22;100.00
6680;BME280;3376;42.664;23.346;2022-09-13T03:59:36;94297.22;;;14.96;100.00
6680;BME280;3376;42.664;23.346;2022-09-13T04:02:03;94346.84;;;15.27;100.00
6680;BME280;3376;42.664;23.346;2022-09-13T04:04:30;94344.66;;;15.24;100.00
6680;BME280;3376;42.664;23.346;2022-09-13T04:06:59;94344.03;;;15.29;100.00
6680;BME280;3376;42.664;23.346;2022-09-13T04:09:28;94351.84;;;15.29;100.00
6680;BME280;3376;42.664;23.346;2022-09-13T04:11:54;94357.13;;;15.22;100.00
6680;BME280;3376;42.664;23.346;2022-09-13T04:14:21;94332.47;;;15.12;100.00
6680;BME280;3376;42.664;23.346;2022-09-13T04:16:51;94333.88;;;15.14;100.00
6680;BME280;3376;42.664;23.346;2022-09-13T04:19:17;94332.06;;;15.08;100.00
6680;BME280;3376;42.664;23.346;2022-09-13T04:21:46;94333.47;;;15.11;100.00
6680;BME280;3376;42.664;23.346;2022-09-13T04:24:15;94285.81;;;14.84;100.00
6680;BME280;3376;42.664;23.346;2022-09-13T04:26:42;94344.69;;;15.18;100.00
6680;BME280;3376;42.664;23.346;2022-09-13T04:29:09;94346.72;;;15.16;100.00
6680;BME280;3376;42.664;23.346;2022-09-13T04:31:36;94347.91;;;15.20;100.00
6680;BME280;3376;42.664;23.346;2022-09-13T04:34:03;94337.13;;;15.10;100.00
6680;BME280;3376;42.664;23.346;2022-09-13T04:36:31;94360.09;;;15.26;100.00
6680;BME280;3376;42.664;23.346;2022-09-13T04:38:58;94356.47;;;15.33;100.00
6680;BME280;3376;42.664;23.346;2022-09-13T04:41:27;94344.66;;;15.24;100.00
6680;BME280;3376;42.664;23.346;2022-09-13T04:43:54;94366.06;;;15.53;100.00
6680;BME280;3376;42.664;23.346;2022-09-13T04:46:20;94350.75;;;15.56;99.27
6680;BME280;3376;42.664;23.346;2022-09-13T04:48:48;94357.53;;;15.64;98.71
6680;BME280;3376;42.664;23.346;2022-09-13T04:51:15;94365.31;;;15.77;98.90
6680;BME280;3376;42.664;23.346;2022-09-13T04:53:42;94383.94;;;15.87;97.18
6680;BME280;3376;42.664;23.346;2022-09-13T04:56:09;94373.44;;;15.93;96.46
6680;BME280;3376;42.664;23.346;2022-09-13T04:58:38;94337.31;;;15.84;96.79
6680;BME280;3376;42.664;23.346;2022-09-13T05:01:06;94378.25;;;16.21;94.62
6680;BME280;3376;42.664;23.346;2022-09-13T05:03:34;94358.03;;;16.10;93.42
6680;BME280;3376;42.664;23.346;2022-09-13T05:06:02;94385.75;;;16.35;92.81
6680;BME280;3376;42.664;23.346;2022-09-13T05:08:29;94367.53;;;16.29;90.93
6680;BME280;3376;42.664;23.346;2022-09-13T05:10:56;94353.63;;;16.28;90.98
6680;BME280;3376;42.664;23.346;2022-09-13T05:13:23;94380.63;;;16.54;90.00
6680;BME280;3376;42.664;23.346;2022-09-13T05:15:55;94354.91;;;16.44;88.28
6680;BME280;3376;42.664;23.346;2022-09-13T05:18:22;94374.88;;;16.63;88.46
6680;BME280;3376;42.664;23.346;2022-09-13T05:20:53;94386.09;;;16.70;86.38
6680;BME280;3376;42.664;23.346;2022-09-13T05:23:20;94371.34;;;16.76;86.27
6680;BME280;3376;42.664;23.346;2022-09-13T05:25:51;94379.16;;;17.00;86.38
6680;BME280;3376;42.664;23.346;2022-09-13T05:28:18;94374.63;;;17.25;84.43
6680;BME280;3376;42.664;23.346;2022-09-13T05:30:54;94373.31;;;17.52;83.63
6680;BME280;3376;42.664;23.346;2022-09-13T05:33:21;94382.88;;;17.77;81.03
6680;BME280;3376;42.664;23.346;2022-09-13T05:35:49;94371.53;;;17.94;79.24
6680;BME280;3376;42.664;23.346;2022-09-13T05:38:16;94337.75;;;17.75;78.88
6680;BME280;3376;42.664;23.346;2022-09-13T05:40:43;94382.03;;;18.06;77.44
6680;BME280;3376;42.664;23.346;2022-09-13T05:43:10;94386.59;;;18.10;77.74
6680;BME280;3376;42.664;23.346;2022-09-13T05:45:37;94379.09;;;18.14;76.59
6680;BME280;3376;42.664;23.346;2022-09-13T05:48:05;94387.28;;;18.06;75.96
6680;BME280;3376;42.664;23.346;2022-09-13T05:50:36;94386.09;;;17.90;77.21
6680;BME280;3376;42.664;23.346;2022-09-13T05:53:03;94385.63;;;17.82;77.16
6680;BME280;3376;42.664;23.346;2022-09-13T05:55:30;94388.00;;;17.83;77.20
6680;BME280;3376;42.664;23.346;2022-09-13T05:57:57;94381.84;;;17.78;77.29
6680;BME280;3376;42.664;23.346;2022-09-13T06:00:24;94380.19;;;17.95;77.22
6680;BME280;3376;42.664;23.346;2022-09-13T06:02:51;94388.00;;;18.13;76.13
6680;BME280;3376;42.664;23.346;2022-09-13T06:05:19;94384.69;;;18.17;74.75
6680;BME280;3376;42.664;23.346;2022-09-13T06:07:46;94382.19;;;18.22;75.17
6680;BME280;3376;42.664;23.346;2022-09-13T06:10:13;94386.81;;;18.50;74.51
6680;BME280;3376;42.664;23.346;2022-09-13T06:12:40;94393.00;;;18.44;73.68
6680;BME280;3376;42.664;23.346;2022-09-13T06:15:08;94398.25;;;18.55;72.94
6680;BME280;3376;42.664;23.346;2022-09-13T06:17:35;94400.28;;;18.65;72.04
6680;BME280;3376;42.664;23.346;2022-09-13T06:20:03;94408.19;;;18.77;71.70
6680;BME280;3376;42.664;23.346;2022-09-13T06:22:31;94283.19;;;17.95;71.22
6680;BME280;3376;42.664;23.346;2022-09-13T06:24:59;94404.53;;;18.66;72.18
6680;BME280;3376;42.664;23.346;2022-09-13T06:27:28;94386.28;;;18.59;71.82
6680;BME280;3376;42.664;23.346;2022-09-13T06:29:55;94403.63;;;18.95;71.17
6680;BME280;3376;42.664;23.346;2022-09-13T06:32:22;94392.66;;;18.98;71.61
6680;BME280;3376;42.664;23.346;2022-09-13T06:34:49;94406.09;;;19.36;70.47
6680;BME280;3376;42.664;23.346;2022-09-13T06:37:16;94402.28;;;19.55;73.03
6680;BME280;3376;42.664;23.346;2022-09-13T06:39:44;94413.84;;;19.82;70.35
6680;BME280;3376;42.664;23.346;2022-09-13T06:42:10;94411.09;;;19.89;71.59
6680;BME280;3376;42.664;23.346;2022-09-13T06:44:37;94416.53;;;19.99;68.21
6680;BME280;3376;42.664;23.346;2022-09-13T06:47:04;94415.13;;;20.08;69.60
6680;BME280;3376;42.664;23.346;2022-09-13T06:49:31;94422.66;;;20.16;68.32
6680;BME280;3376;42.664;23.346;2022-09-13T06:51:58;94420.16;;;20.38;67.64
6680;BME280;3376;42.664;23.346;2022-09-13T06:54:25;94432.50;;;20.54;64.67
6680;BME280;3376;42.664;23.346;2022-09-13T06:56:53;94423.97;;;20.47;64.10
6680;BME280;3376;42.664;23.346;2022-09-13T06:59:20;94419.28;;;20.49;73.61
6680;BME280;3376;42.664;23.346;2022-09-13T07:01:47;94424.63;;;20.70;64.39
6680;BME280;3376;42.664;23.346;2022-09-13T07:04:15;94412.66;;;20.63;64.44
6680;BME280;3376;42.664;23.346;2022-09-13T07:06:45;94418.72;;;20.80;63.43
6680;BME280;3376;42.664;23.346;2022-09-13T07:09:14;94443.88;;;21.04;62.94
6680;BME280;3376;42.664;23.346;2022-09-13T07:11:42;94435.78;;;21.11;63.79
6680;BME280;3376;42.664;23.346;2022-09-13T07:14:14;94433.53;;;21.19;61.90
6680;BME280;3376;42.664;23.346;2022-09-13T07:16:41;94438.81;;;21.19;59.57
6680;BME280;3376;42.664;23.346;2022-09-13T07:19:12;94437.53;;;21.05;61.81
6680;BME280;3376;42.664;23.346;2022-09-13T07:21:39;94419.84;;;21.00;60.46
6680;BME280;3376;42.664;23.346;2022-09-13T07:24:07;94437.63;;;21.27;65.47
6680;BME280;3376;42.664;23.346;2022-09-13T07:26:34;94437.94;;;21.52;59.55
6680;BME280;3376;42.664;23.346;2022-09-13T07:29:03;94439.53;;;21.74;57.41
6680;BME280;3376;42.664;23.346;2022-09-13T07:31:33;94433.50;;;21.95;56.59
6680;BME280;3376;42.664;23.346;2022-09-13T07:34:02;94430.59;;;22.24;55.42
6680;BME280;3376;42.664;23.346;2022-09-13T07:36:31;94440.63;;;22.22;55.43
6680;BME280;3376;42.664;23.346;2022-09-13T07:38:59;94430.56;;;22.45;54.88
6680;BME280;3376;42.664;23.346;2022-09-13T07:41:27;94424.03;;;21.99;53.47
6680;BME280;3376;42.664;23.346;2022-09-13T07:43:54;94408.13;;;21.94;54.25
6680;BME280;3376;42.664;23.346;2022-09-13T07:46:24;94442.53;;;22.26;52.32
6680;BME280;3376;42.664;23.346;2022-09-13T07:48:53;94434.47;;;22.11;58.81
6680;BME280;3376;42.664;23.346;2022-09-13T07:51:21;94438.94;;;21.89;56.84
6680;BME280;3376;42.664;23.346;2022-09-13T07:53:50;94447.84;;;21.83;60.26
6680;BME280;3376;42.664;23.346;2022-09-13T07:56:18;94449.56;;;21.94;58.40
6680;BME280;3376;42.664;23.346;2022-09-13T07:58:47;94447.53;;;22.01;56.34
6680;BME280;3376;42.664;23.346;2022-09-13T08:01:16;94449.59;;;22.21;53.85
6680;BME280;3376;42.664;23.346;2022-09-13T08:03:44;94270.13;;;21.14;52.56
6680;BME280;3376;42.664;23.346;2022-09-13T08:06:12;94448.31;;;22.01;52.38
6680;BME280;3376;42.664;23.346;2022-09-13T08:08:39;94450.78;;;21.65;54.95
6680;BME280;3376;42.664;23.346;2022-09-13T08:11:06;94432.91;;;21.29;56.89
6680;BME280;3376;42.664;23.346;2022-09-13T08:13:33;94442.78;;;21.60;56.92
6680;BME280;3376;42.664;23.346;2022-09-13T08:16:01;94453.56;;;21.58;55.92
6680;BME280;3376;42.664;23.346;2022-09-13T08:18:27;94428.31;;;21.41;55.30
6680;BME280;3376;42.664;23.346;2022-09-13T08:20:55;94439.97;;;22.09;55.22
6680;BME280;3376;42.664;23.346;2022-09-13T08:23:23;94429.13;;;22.33;53.44
6680;BME280;3376;42.664;23.346;2022-09-13T08:25:50;94436.50;;;22.31;52.36
6680;BME280;3376;42.664;23.346;2022-09-13T08:28:18;94437.22;;;22.53;52.26
6680;BME280;3376;42.664;23.346;2022-09-13T08:30:47;94433.41;;;22.65;50.44
6680;BME280;3376;42.664;23.346;2022-09-13T08:33:14;94436.97;;;22.81;49.53
6680;BME280;3376;42.664;23.346;2022-09-13T08:35:50;94415.19;;;22.64;46.83
6680;BME280;3376;42.664;23.346;2022-09-13T08:38:17;94438.66;;;22.39;47.54
6680;BME280;3376;42.664;23.346;2022-09-13T08:40:53;94439.63;;;22.28;48.34
6680;BME280;3376;42.664;23.346;2022-09-13T08:43:26;94423.34;;;21.87;51.20
6680;BME280;3376;42.664;23.346;2022-09-13T08:46:01;94376.44;;;21.68;48.89
6680;BME280;3376;42.664;23.346;2022-09-13T08:48:32;94400.25;;;22.53;49.84
6680;BME280;3376;42.664;23.346;2022-09-13T08:51:03;94390.75;;;23.25;45.80
6680;BME280;3376;42.664;23.346;2022-09-13T08:53:38;94426.88;;;23.51;42.88
6680;BME280;3376;42.664;23.346;2022-09-13T08:56:12;94424.47;;;23.40;42.87
6680;BME280;3376;42.664;23.346;2022-09-13T08:58:57;94429.31;;;23.63;42.65
6680;BME280;3376;42.664;23.346;2022-09-13T09:01:40;94420.00;;;23.55;43.25
6680;BME280;3376;42.664;23.346;2022-09-13T09:04:19;94380.59;;;23.02;43.11
6680;BME280;3376;42.664;23.346;2022-09-13T09:07:02;94427.72;;;22.83;44.84
6680;BME280;3376;42.664;23.346;2022-09-13T09:09:33;94420.41;;;22.59;44.46
6680;BME280;3376;42.664;23.346;2022-09-13T09:12:12;94428.28;;;23.22;42.23
6680;BME280;3376;42.664;23.346;2022-09-13T09:14:42;94415.50;;;23.09;41.59
6680;BME280;3376;42.664;23.346;2022-09-13T09:17:14;94406.59;;;23.20;40.98
6680;BME280;3376;42.664;23.346;2022-09-13T09:19:45;94434.03;;;23.56;39.58
6680;BME280;3376;42.664;23.346;2022-09-13T09:22:16;94427.88;;;23.40;41.01
6680;BME280;3376;42.664;23.346;2022-09-13T09:24:48;94431.56;;;23.02;40.13
6680;BME280;3376;42.664;23.346;2022-09-13T09:27:19;94426.63;;;22.74;43.50
6680;BME280;3376;42.664;23.346;2022-09-13T09:29:47;94425.31;;;22.77;43.39
6680;BME280;3376;42.664;23.346;2022-09-13T09:32:31;94418.44;;;22.76;43.09
6680;BME280;3376;42.664;23.346;2022-09-13T09:35:11;94426.63;;;22.74;42.95
6680;BME280;3376;42.664;23.346;2022-09-13T09:37:45;94410.47;;;22.71;42.91
6680;BME280;3376;42.664;23.346;2022-09-13T09:40:16;94403.00;;;23.36;42.75
6680;BME280;3376;42.664;23.346;2022-09-13T09:42:46;94408.53;;;23.96;43.33
6680;BME280;3376;42.664;23.346;2022-09-13T09:45:24;94393.78;;;24.10;39.67
6680;BME280;3376;42.664;23.346;2022-09-13T09:47:53;94361.78;;;24.27;40.59
6680;BME280;3376;42.664;23.346;2022-09-13T09:50:23;94240.25;;;24.00;40.21
6680;BME280;3376;42.664;23.346;2022-09-13T09:52:58;94403.31;;;25.57;39.52
6680;BME280;3376;42.664;23.346;2022-09-13T09:55:28;94393.38;;;25.88;38.04
6680;BME280;3376;42.664;23.346;2022-09-13T09:57:58;94396.25;;;25.96;37.21
6680;BME280;3376;42.664;23.346;2022-09-13T10:00:27;94387.59;;;26.24;37.03
6680;BME280;3376;42.664;23.346;2022-09-13T10:02:57;94386.09;;;26.52;35.70
6680;BME280;3376;42.664;23.346;2022-09-13T10:05:26;94396.47;;;26.10;37.02
6680;BME280;3376;42.664;23.346;2022-09-13T10:07:58;94391.44;;;25.19;38.70
6680;BME280;3376;42.664;23.346;2022-09-13T10:10:34;94390.94;;;25.02;38.25
6680;BME280;3376;42.664;23.346;2022-09-13T10:13:06;94369.22;;;25.00;39.08
6680;BME280;3376;42.664;23.346;2022-09-13T10:15:51;94381.09;;;25.28;37.28
6680;BME280;3376;42.664;23.346;2022-09-13T10:18:20;94380.34;;;24.97;37.39
6680;BME280;3376;42.664;23.346;2022-09-13T10:20:59;94327.09;;;24.74;37.46
6680;BME280;3376;42.664;23.346;2022-09-13T10:23:28;94339.47;;;25.13;38.26
6680;BME280;3376;42.664;23.346;2022-09-13T10:25:59;94383.19;;;25.41;37.57
6680;BME280;3376;42.664;23.346;2022-09-13T10:28:31;94379.19;;;25.33;39.24
6680;BME280;3376;42.664;23.346;2022-09-13T10:31:02;94379.19;;;25.53;37.51
6680;BME280;3376;42.664;23.346;2022-09-13T10:33:33;94364.63;;;25.36;38.93
6680;BME280;3376;42.664;23.346;2022-09-13T10:36:04;94374.16;;;25.52;36.65
6680;BME280;3376;42.664;23.346;2022-09-13T10:38:33;94364.00;;;25.69;36.22
6680;BME280;3376;42.664;23.346;2022-09-13T10:41:03;94362.78;;;26.00;35.62
6680;BME280;3376;42.664;23.346;2022-09-13T10:43:33;94354.31;;;26.37;34.78
6680;BME280;3376;42.664;23.346;2022-09-13T10:46:02;94363.41;;;26.70;34.46
6680;BME280;3376;42.664;23.346;2022-09-13T10:48:40;94356.22;;;26.31;33.85
6680;BME280;3376;42.664;23.346;2022-09-13T10:51:19;94351.84;;;26.45;34.55
6680;BME280;3376;42.664;23.346;2022-09-13T10:53:47;94358.25;;;26.44;34.47
6680;BME280;3376;42.664;23.346;2022-09-13T10:56:19;94355.28;;;26.51;34.21
6680;BME280;3376;42.664;23.346;2022-09-13T10:58:47;94346.06;;;26.38;34.77
6680;BME280;3376;42.664;23.346;2022-09-13T11:01:36;94344.16;;;26.10;35.18
6680;BME280;3376;42.664;23.346;2022-09-13T11:04:55;94189.50;;;24.92;34.62
6680;BME280;3376;42.664;23.346;2022-09-13T11:07:44;94333.94;;;25.79;35.00
6680;BME280;3376;42.664;23.346;2022-09-13T11:10:19;94349.03;;;25.83;36.48
6680;BME280;3376;42.664;23.346;2022-09-13T11:12:55;94342.19;;;25.77;35.86
6680;BME280;3376;42.664;23.346;2022-09-13T11:15:39;94338.00;;;25.61;35.89
6680;BME280;3376;42.664;23.346;2022-09-13T11:18:22;94353.34;;;25.74;37.80
6680;BME280;3376;42.664;23.346;2022-09-13T11:21:01;94336.75;;;26.02;34.85
6680;BME280;3376;42.664;23.346;2022-09-13T11:23:44;94337.47;;;26.13;33.90
6680;BME280;3376;42.664;23.346;2022-09-13T11:26:33;94325.69;;;25.80;33.96
6680;BME280;3376;42.664;23.346;2022-09-13T11:29:15;94328.06;;;25.82;34.84
6680;BME280;3376;42.664;23.346;2022-09-13T11:31:54;94335.75;;;25.88;34.29
6680;BME280;3376;42.664;23.346;2022-09-13T11:34:36;94323.31;;;25.79;33.48
6680;BME280;3376;42.664;23.346;2022-09-13T11:37:25;94243.81;;;24.95;35.29
6680;BME280;3376;42.664;23.346;2022-09-13T11:42:51;94303.16;;;25.09;33.79
6680;BME280;3376;42.664;23.346;2022-09-13T11:45:25;94314.88;;;24.83;37.94
6680;BME280;3376;42.664;23.346;2022-09-13T11:48:21;94318.28;;;25.03;34.93
6680;BME280;3376;42.664;23.346;2022-09-13T11:50:57;94323.66;;;24.73;35.85
6680;BME280;3376;42.664;23.346;2022-09-13T11:53:39;94326.03;;;24.65;36.36
6680;BME280;3376;42.664;23.346;2022-09-13T11:56:15;94284.97;;;24.47;35.83
6680;BME280;3376;42.664;23.346;2022-09-13T11:58:47;94320.19;;;24.83;35.91
6680;BME280;3376;42.664;23.346;2022-09-13T12:01:19;94310.91;;;24.95;35.71
6680;BME280;3376;42.664;23.346;2022-09-13T12:03:56;94305.63;;;24.90;36.52
6680;BME280;3376;42.664;23.346;2022-09-13T12:06:29;94319.09;;;25.09;36.13
6680;BME280;3376;42.664;23.346;2022-09-13T12:08:59;94316.38;;;25.19;34.65
6680;BME280;3376;42.664;23.346;2022-09-13T12:11:31;94304.69;;;25.25;33.39
6680;BME280;3376;42.664;23.346;2022-09-13T12:14:02;94320.31;;;25.41;33.48
6680;BME280;3376;42.664;23.346;2022-09-13T12:16:32;94323.66;;;25.67;33.63
6680;BME280;3376;42.664;23.346;2022-09-13T12:19:04;94315.59;;;25.82;33.75
6680;BME280;3376;42.664;23.346;2022-09-13T12:21:36;94313.63;;;25.54;34.19
6680;BME280;3376;42.664;23.346;2022-09-13T12:24:10;94315.56;;;25.38;34.21
6680;BME280;3376;42.664;23.346;2022-09-13T12:26:44;94318.47;;;25.37;34.92
6680;BME280;3376;42.664;23.346;2022-09-13T12:29:17;94132.44;;;24.36;35.35
6680;BME280;3376;42.664;23.346;2022-09-13T12:31:46;94312.19;;;25.77;33.79
6680;BME280;3376;42.664;23.346;2022-09-13T12:34:19;94305.34;;;25.66;34.10
6680;BME280;3376;42.664;23.346;2022-09-13T12:37:03;94317.34;;;25.53;34.14
6680;BME280;3376;42.664;23.346;2022-09-13T12:39:53;94282.75;;;25.14;34.55
6680;BME280;3376;42.664;23.346;2022-09-13T12:45:50;94297.75;;;25.34;34.63
6680;BME280;3376;42.664;23.346;2022-09-13T12:48:32;94266.59;;;25.11;34.12
6680;BME280;3376;42.664;23.346;2022-09-13T12:51:12;94300.97;;;25.31;34.28
6680;BME280;3376;42.664;23.346;2022-09-13T12:54:11;94315.34;;;25.10;34.26
6680;BME280;3376;42.664;23.346;2022-09-13T12:57:02;94303.97;;;25.09;33.95
6680;BME280;3376;42.664;23.346;2022-09-13T13:02:27;94302.72;;;24.82;34.85
6680;BME280;3376;42.664;23.346;2022-09-13T13:04:57;94304.28;;;24.88;35.22
6680;BME280;3376;42.664;23.346;2022-09-13T13:07:28;94313.31;;;24.77;34.99
6680;BME280;3376;42.664;23.346;2022-09-13T13:09:58;94293.72;;;24.78;34.59
6680;BME280;3376;42.664;23.346;2022-09-13T13:12:28;94311.47;;;24.72;35.16
6680;BME280;3376;42.664;23.346;2022-09-13T13:17:45;94321.25;;;24.11;38.62
6680;BME280;3376;42.664;23.346;2022-09-13T13:21:01;94314.91;;;24.17;37.18
6680;BME280;3376;42.664;23.346;2022-09-13T13:23:32;94318.09;;;24.24;38.41
6680;BME280;3376;42.664;23.346;2022-09-13T13:26:06;94315.44;;;24.29;36.22
6680;BME280;3376;42.664;23.346;2022-09-13T13:29:09;94319.69;;;24.35;37.16
6680;BME280;3376;42.664;23.346;2022-09-13T13:31:39;94319.97;;;24.39;36.07
6680;BME280;3376;42.664;23.346;2022-09-13T13:34:27;94285.78;;;24.22;37.36
6680;BME280;3376;42.664;23.346;2022-09-13T13:36:59;94316.22;;;24.65;37.10
6680;BME280;3376;42.664;23.346;2022-09-13T13:39:38;94246.03;;;23.72;38.43
6680;BME280;3376;42.664;23.346;2022-09-13T13:42:22;94319.56;;;23.70;39.53
6680;BME280;3376;42.664;23.346;2022-09-13T13:44:57;94314.13;;;23.30;39.98
6680;BME280;3376;42.664;23.346;2022-09-13T13:51:12;94324.75;;;23.45;39.51
6680;BME280;3376;42.664;23.346;2022-09-13T13:53:41;94325.34;;;23.67;38.91
6680;BME280;3376;42.664;23.346;2022-09-13T13:56:23;94321.72;;;23.93;37.40
6680;BME280;3376;42.664;23.346;2022-09-13T13:58:54;94332.06;;;24.00;38.61